sensor_id;sensor_type;location;lat;lon;timestamp;pressure;altitude;pressure_sealevel;temperature;humidity
79589;BME280;69067;51.930;4.492;2023-07-09T00:00:17;101636.69;;;30.30;43.28
79589;BME280;69067;51.930;4.492;2023-07-09T00:02:45;101637.28;;;30.32;43.44
79589;BME280;69067;51.930;4.492;2023-07-09T00:05:13;101632.72;;;30.26;42.97
79589;BME280;69067;51.930;4.492;2023-07-09T00:07:44;101631.66;;;30.27;43.33
79589;BME280;69067;51.930;4.492;2023-07-09T00:10:19;101644.06;;;30.29;43.29
79589;BME280;69067;51.930;4.492;2023-07-09T00:12:46;101646.59;;;30.31;43.14
79589;BME280;69067;51.930;4.492;2023-07-09T00:15:15;101651.34;;;30.24;42.57
79589;BME280;69067;51.930;4.492;2023-07-09T00:17:42;101655.78;;;30.25;43.18
79589;BME280;69067;51.930;4.492;2023-07-09T00:20:17;101653.88;;;30.25;43.63
79589;BME280;69067;51.930;4.492;2023-07-09T00:22:43;101652.59;;;30.28;43.79
79589;BME280;69067;51.930;4.492;2023-07-09T00:25:19;101654.94;;;30.24;43.23
79589;BME280;69067;51.930;4.492;2023-07-09T00:27:46;101660.34;;;30.31;42.84
79589;BME280;69067;51.930;4.492;2023-07-09T00:30:20;101661.06;;;30.26;43.19
79589;BME280;69067;51.930;4.492;2023-07-09T00:32:50;101655.78;;;30.25;43.34
79589;BME280;69067;51.930;4.492;2023-07-09T00:35:17;101654.72;;;30.26;43.25
79589;BME280;69067;51.930;4.492;2023-07-09T00:37:45;101646.03;;;30.29;43.06
79589;BME280;69067;51.930;4.492;2023-07-09T00:40:22;101656.63;;;30.25;42.55
79589;BME280;69067;51.930;4.492;2023-07-09T00:42:53;101651.25;;;30.30;42.53
79589;BME280;69067;51.930;4.492;2023-07-09T00:45:25;101656.41;;;30.27;42.73
79589;BME280;69067;51.930;4.492;2023-07-09T00:48:01;101642.44;;;30.28;43.25
79589;BME280;69067;51.930;4.492;2023-07-09T00:53:31;101637.16;;;30.27;42.78
79589;BME280;69067;51.930;4.492;2023-07-09T00:56:08;101643.34;;;30.22;42.52
79589;BME280;69067;51.930;4.492;2023-07-09T00:58:38;101639.69;;;30.28;42.09
79589;BME280;69067;51.930;4.492;2023-07-09T01:01:09;101651.34;;;30.24;42.83
79589;BME280;69067;51.930;4.492;2023-07-09T01:03:44;101650.06;;;30.26;42.67
79589;BME280;69067;51.930;4.492;2023-07-09T01:06:13;101649.56;;;30.29;42.80
79589;BME280;69067;51.930;4.492;2023-07-09T01:08:42;101657.47;;;30.26;42.15
79589;BME280;69067;51.930;4.492;2023-07-09T01:11:22;101658.75;;;30.23;43.32
79589;BME280;69067;51.930;4.492;2023-07-09T01:13:52;101662.97;;;30.26;42.83
79589;BME280;69067;51.930;4.492;2023-07-09T01:16:23;101661.75;;;30.22;43.39
79589;BME280;69067;51.930;4.492;2023-07-09T01:18:51;101659.59;;;30.24;42.39
79589;BME280;69067;51.930;4.492;2023-07-09T01:21:17;101661.28;;;30.25;42.47
79589;BME280;69067;51.930;4.492;2023-07-09T01:23:45;101665.47;;;30.27;42.56
79589;BME280;69067;51.930;4.492;2023-07-09T01:26:16;101674.78;;;30.26;42.94
79589;BME280;69067;51.930;4.492;2023-07-09T01:28:44;101677.75;;;30.25;43.09
79589;BME280;69067;51.930;4.492;2023-07-09T01:31:14;101688.97;;;30.23;42.49
79589;BME280;69067;51.930;4.492;2023-07-09T01:33:42;101671.66;;;30.23;42.58
79589;BME280;69067;51.930;4.492;2023-07-09T01:36:12;101682.19;;;30.26;42.50
79589;BME280;69067;51.930;4.492;2023-07-09T01:38:42;101671.66;;;30.23;42.75
79589;BME280;69067;51.930;4.492;2023-07-09T01:41:09;101671.06;;;30.21;42.35
79589;BME280;69067;51.930;4.492;2023-07-09T01:43:39;101675.50;;;30.22;43.10
79589;BME280;69067;51.930;4.492;2023-07-09T01:46:08;101669.53;;;30.25;42.73
79589;BME280;69067;51.930;4.492;2023-07-09T01:48:34;101668.69;;;30.24;42.45
79589;BME280;69067;51.930;4.492;2023-07-09T01:51:08;101665.31;;;30.22;42.61
79589;BME280;69067;51.930;4.492;2023-07-09T01:53:36;101670.81;;;30.22;42.58
79589;BME280;69067;51.930;4.492;2023-07-09T01:56:04;101665.09;;;30.24;42.47
79589;BME280;69067;51.930;4.492;2023-07-09T01:58:32;101668.69;;;30.24;42.65
79589;BME280;69067;51.930;4.492;2023-07-09T02:00:58;101666.41;;;30.21;42.41
79589;BME280;69067;51.930;4.492;2023-07-09T02:03:25;101663.06;;;30.19;42.74
79589;BME280;69067;51.930;4.492;2023-07-09T02:05:54;101671.44;;;30.24;43.13
79589;BME280;69067;51.930;4.492;2023-07-09T02:08:20;101658.63;;;30.18;42.94
79589;BME280;69067;51.930;4.492;2023-07-09T02:10:50;101651.94;;;30.14;42.50
79589;BME280;69067;51.930;4.492;2023-07-09T02:13:16;101666.41;;;30.21;42.66
79589;BME280;69067;51.930;4.492;2023-07-09T02:15:43;101669.38;;;30.20;42.57
79589;BME280;69067;51.930;4.492;2023-07-09T02:18:10;101659.06;;;30.15;42.81
79589;BME280;69067;51.930;4.492;2023-07-09T02:20:37;101667.72;;;30.19;42.30
79589;BME280;69067;51.930;4.492;2023-07-09T02:23:03;101665.56;;;30.21;42.70
79589;BME280;69067;51.930;4.492;2023-07-09T02:25:29;101659.69;;;30.17;42.78
79589;BME280;69067;51.930;4.492;2023-07-09T02:27:54;101657.66;;;30.12;43.17
79589;BME280;69067;51.930;4.492;2023-07-09T02:30:20;101651.69;;;30.15;43.29
79589;BME280;69067;51.930;4.492;2023-07-09T02:32:46;101655.97;;;30.11;42.66
79589;BME280;69067;51.930;4.492;2023-07-09T02:35:12;101663.38;;;30.11;42.14
79589;BME280;69067;51.930;4.492;2023-07-09T02:37:38;101656.44;;;30.08;42.61
79589;BME280;69067;51.930;4.492;2023-07-09T02:40:04;101662.91;;;30.14;42.57
79589;BME280;69067;51.930;4.492;2023-07-09T02:42:31;101674.13;;;30.12;43.04
79589;BME280;69067;51.930;4.492;2023-07-09T02:44:56;101668.50;;;30.07;42.72
79589;BME280;69067;51.930;4.492;2023-07-09T02:47:22;101666.97;;;30.11;43.07
79589;BME280;69067;51.930;4.492;2023-07-09T02:49:48;101668.03;;;30.10;42.90
79589;BME280;69067;51.930;4.492;2023-07-09T02:52:14;101653.09;;;30.06;42.29
79589;BME280;69067;51.930;4.492;2023-07-09T02:54:39;101651.03;;;30.02;42.86
79589;BME280;69067;51.930;4.492;2023-07-09T02:57:05;101662.63;;;30.04;42.74
79589;BME280;69067;51.930;4.492;2023-07-09T02:59:31;101661.34;;;30.06;42.81
79589;BME280;69067;51.930;4.492;2023-07-09T03:01:59;101668.97;;;30.04;42.81
79589;BME280;69067;51.930;4.492;2023-07-09T03:04:26;101671.25;;;30.07;43.08
79589;BME280;69067;51.930;4.492;2023-07-09T03:06:52;101668.03;;;30.10;43.10
79589;BME280;69067;51.930;4.492;2023-07-09T03:09:18;101667.19;;;30.10;42.74
79589;BME280;69067;51.930;4.492;2023-07-09T03:11:45;101667.41;;;30.08;42.08
79589;BME280;69067;51.930;4.492;2023-07-09T03:14:10;101682.00;;;30.09;42.61
79589;BME280;69067;51.930;4.492;2023-07-09T03:16:36;101676.50;;;30.09;43.09
79589;BME280;69067;51.930;4.492;2023-07-09T03:19:03;101676.00;;;30.00;42.83
79589;BME280;69067;51.930;4.492;2023-07-09T03:21:30;101682.06;;;30.02;42.28
79589;BME280;69067;51.930;4.492;2023-07-09T03:23:57;101680.41;;;30.01;42.63
79589;BME280;69067;51.930;4.492;2023-07-09T03:26:23;101686.06;;;30.06;42.93
79589;BME280;69067;51.930;4.492;2023-07-09T03:28:51;101678.97;;;29.99;42.73
79589;BME280;69067;51.930;4.492;2023-07-09T03:31:18;101688.63;;;30.01;42.44
79589;BME280;69067;51.930;4.492;2023-07-09T03:33:47;101697.28;;;30.05;42.49
79589;BME280;69067;51.930;4.492;2023-07-09T03:36:13;101684.25;;;30.00;42.55
79589;BME280;69067;51.930;4.492;2023-07-09T03:38:39;101693.69;;;30.04;42.97
79589;BME280;69067;51.930;4.492;2023-07-09T03:41:06;101697.28;;;30.05;42.34
79589;BME280;69067;51.930;4.492;2023-07-09T03:43:32;101687.00;;;30.00;42.31
79589;BME280;69067;51.930;4.492;2023-07-09T03:45:58;101695.59;;;30.04;42.40
79589;BME280;69067;51.930;4.492;2023-07-09T03:48:24;101693.06;;;30.02;42.74
79589;BME280;69067;51.930;4.492;2023-07-09T03:50:50;101687.00;;;30.00;42.39
79589;BME280;69067;51.930;4.492;2023-07-09T03:53:16;101676.44;;;29.97;42.92
79589;BME280;69067;51.930;4.492;2023-07-09T03:55:45;101676.22;;;29.99;42.91
79589;BME280;69067;51.930;4.492;2023-07-09T03:58:12;101670.50;;;30.00;42.63
79589;BME280;69067;51.930;4.492;2023-07-09T04:00:38;101672.16;;;30.01;42.16
79589;BME280;69067;51.930;4.492;2023-07-09T04:03:04;101677.06;;;29.99;42.43
79589;BME280;69067;51.930;4.492;2023-07-09T04:05:30;101665.91;;;29.94;42.53
79589;BME280;69067;51.930;4.492;2023-07-09T04:07:55;101670.59;;;29.94;42.70
79589;BME280;69067;51.930;4.492;2023-07-09T04:10:21;101671.78;;;29.98;42.67
79589;BME280;69067;51.930;4.492;2023-07-09T04:12:47;101667.38;;;29.97;42.65
79589;BME280;69067;51.930;4.492;2023-07-09T04:15:13;101670.34;;;29.95;42.23
79589;BME280;69067;51.930;4.492;2023-07-09T04:17:39;101669.28;;;29.96;42.94
79589;BME280;69067;51.930;4.492;2023-07-09T04:20:07;101675.84;;;29.95;42.79
79589;BME280;69067;51.930;4.492;2023-07-09T04:22:35;101676.66;;;29.96;42.06
79589;BME280;69067;51.930;4.492;2023-07-09T04:25:02;101675.00;;;29.95;41.42
79589;BME280;69067;51.930;4.492;2023-07-09T04:27:30;101674.16;;;29.94;41.73
79589;BME280;69067;51.930;4.492;2023-07-09T04:29:56;101685.13;;;29.94;41.90
79589;BME280;69067;51.930;4.492;2023-07-09T04:32:22;101683.47;;;29.93;41.85
79589;BME280;69067;51.930;4.492;2023-07-09T04:34:48;101679.63;;;29.94;41.94
79589;BME280;69067;51.930;4.492;2023-07-09T04:37:14;101679.91;;;29.93;41.97
79589;BME280;69067;51.930;4.492;2023-07-09T04:39:43;101680.75;;;29.93;41.95
79589;BME280;69067;51.930;4.492;2023-07-09T04:42:13;101671.00;;;29.91;41.46
79589;BME280;69067;51.930;4.492;2023-07-09T04:44:40;101690.09;;;29.86;42.66
79589;BME280;69067;51.930;4.492;2023-07-09T04:47:06;101676.94;;;29.88;41.84
79589;BME280;69067;51.930;4.492;2023-07-09T04:49:32;101686.03;;;29.88;41.33
79589;BME280;69067;51.930;4.492;2023-07-09T04:51:59;101692.13;;;29.90;41.85
79589;BME280;69067;51.930;4.492;2023-07-09T04:54:26;101705.09;;;29.83;42.23
79589;BME280;69067;51.930;4.492;2023-07-09T04:56:52;101711.84;;;29.87;42.04
79589;BME280;69067;51.930;4.492;2023-07-09T04:59:18;101709.09;;;29.87;41.96
79589;BME280;69067;51.930;4.492;2023-07-09T05:01:44;101713.75;;;29.87;41.82
79589;BME280;69067;51.930;4.492;2023-07-09T05:04:10;101714.41;;;29.82;41.87
79589;BME280;69067;51.930;4.492;2023-07-09T05:06:36;101718.84;;;29.83;41.94
79589;BME280;69067;51.930;4.492;2023-07-09T05:09:02;101708.47;;;29.85;41.66
79589;BME280;69067;51.930;4.492;2023-07-09T05:11:28;101709.16;;;29.81;41.20
79589;BME280;69067;51.930;4.492;2023-07-09T05:13:54;101716.72;;;29.85;42.54
79589;BME280;69067;51.930;4.492;2023-07-09T05:16:20;101711.22;;;29.85;41.90
79589;BME280;69067;51.930;4.492;2023-07-09T05:18:46;101702.00;;;29.80;41.79
79589;BME280;69067;51.930;4.492;2023-07-09T05:21:12;101716.50;;;29.87;41.71
79589;BME280;69067;51.930;4.492;2023-07-09T05:23:38;101705.72;;;29.85;41.81
79589;BME280;69067;51.930;4.492;2023-07-09T05:26:04;101695.81;;;29.84;41.99
79589;BME280;69067;51.930;4.492;2023-07-09T05:28:30;101697.09;;;29.82;41.46
79589;BME280;69067;51.930;4.492;2023-07-09T05:30:58;101710.16;;;29.86;41.25
79589;BME280;69067;51.930;4.492;2023-07-09T05:33:24;101703.59;;;29.87;41.14
79589;BME280;69067;51.930;4.492;2023-07-09T05:35:50;101699.84;;;29.82;41.92
79589;BME280;69067;51.930;4.492;2023-07-09T05:38:16;101685.13;;;29.76;41.62
79589;BME280;69067;51.930;4.492;2023-07-09T05:40:42;101700.69;;;29.82;41.23
79589;BME280;69067;51.930;4.492;2023-07-09T05:43:09;101695.19;;;29.82;41.50
79589;BME280;69067;51.930;4.492;2023-07-09T05:45:36;101700.25;;;29.85;41.60
79589;BME280;69067;51.930;4.492;2023-07-09T05:48:04;101696.03;;;29.83;41.80
79589;BME280;69067;51.930;4.492;2023-07-09T05:50:33;101694.59;;;29.80;41.52
79589;BME280;69067;51.930;4.492;2023-07-09T05:53:00;101713.34;;;29.83;41.48
79589;BME280;69067;51.930;4.492;2023-07-09T05:55:26;101700.09;;;29.80;41.68
79589;BME280;69067;51.930;4.492;2023-07-09T05:57:53;101714.41;;;29.82;41.35
79589;BME280;69067;51.930;4.492;2023-07-09T06:00:19;101709.00;;;29.75;41.47
79589;BME280;69067;51.930;4.492;2023-07-09T06:02:45;101715.94;;;29.78;41.54
79589;BME280;69067;51.930;4.492;2023-07-09T06:05:10;101714.28;;;29.77;41.38
79589;BME280;69067;51.930;4.492;2023-07-09T06:07:38;101705.41;;;29.75;41.71
79589;BME280;69067;51.930;4.492;2023-07-09T06:10:08;101716.41;;;29.75;41.58
79589;BME280;69067;51.930;4.492;2023-07-09T06:12:35;101713.19;;;29.78;41.69
79589;BME280;69067;51.930;4.492;2023-07-09T06:15:01;101711.75;;;29.75;41.86
79589;BME280;69067;51.930;4.492;2023-07-09T06:17:27;101704.81;;;29.73;41.77
79589;BME280;69067;51.930;4.492;2023-07-09T06:19:53;101711.31;;;29.79;41.80
79589;BME280;69067;51.930;4.492;2023-07-09T06:22:19;101711.13;;;29.73;41.37
79589;BME280;69067;51.930;4.492;2023-07-09T06:24:45;101727.38;;;29.75;41.53
79589;BME280;69067;51.930;4.492;2023-07-09T06:27:12;101731.44;;;29.72;41.72
79589;BME280;69067;51.930;4.492;2023-07-09T06:29:38;101742.16;;;29.74;41.56
79589;BME280;69067;51.930;4.492;2023-07-09T06:32:04;101751.03;;;29.76;41.84
79589;BME280;69067;51.930;4.492;2023-07-09T06:34:30;101748.50;;;29.74;40.90
79589;BME280;69067;51.930;4.492;2023-07-09T06:36:56;101753.31;;;29.79;42.00
79589;BME280;69067;51.930;4.492;2023-07-09T06:39:23;101749.03;;;29.83;41.47
79589;BME280;69067;51.930;4.492;2023-07-09T06:41:49;101757.28;;;29.83;41.83
79589;BME280;69067;51.930;4.492;2023-07-09T06:44:15;101763.84;;;29.82;41.24
79589;BME280;69067;51.930;4.492;2023-07-09T06:46:40;101761.38;;;29.74;41.72
79589;BME280;69067;51.930;4.492;2023-07-09T06:49:06;101764.53;;;29.77;41.22
79589;BME280;69067;51.930;4.492;2023-07-09T06:51:32;101771.31;;;29.75;41.54
79589;BME280;69067;51.930;4.492;2023-07-09T06:53:58;101766.50;;;29.70;41.96
79589;BME280;69067;51.930;4.492;2023-07-09T06:56:24;101782.28;;;29.75;41.61
79589;BME280;69067;51.930;4.492;2023-07-09T06:58:50;101770.09;;;29.71;41.33
79589;BME280;69067;51.930;4.492;2023-07-09T07:01:16;101770.94;;;29.71;41.56
79589;BME280;69067;51.930;4.492;2023-07-09T07:03:41;101769.63;;;29.74;40.89
79589;BME280;69067;51.930;4.492;2023-07-09T07:06:07;101768.56;;;29.75;40.85
79589;BME280;69067;51.930;4.492;2023-07-09T07:08:34;101770.53;;;29.68;41.88
79589;BME280;69067;51.930;4.492;2023-07-09T07:11:02;101771.31;;;29.75;41.24
79589;BME280;69067;51.930;4.492;2023-07-09T07:13:37;101770.72;;;29.73;41.29
79589;BME280;69067;51.930;4.492;2023-07-09T07:16:07;101766.88;;;29.74;41.20
79589;BME280;69067;51.930;4.492;2023-07-09T07:18:34;101760.78;;;29.72;41.06
79589;BME280;69067;51.930;4.492;2023-07-09T07:21:01;101761.38;;;29.74;40.54
79589;BME280;69067;51.930;4.492;2023-07-09T07:23:27;101754.38;;;29.78;40.94
79589;BME280;69067;51.930;4.492;2023-07-09T07:25:53;101750.59;;;29.79;40.67
79589;BME280;69067;51.930;4.492;2023-07-09T07:28:20;101756.75;;;29.74;40.96
79589;BME280;69067;51.930;4.492;2023-07-09T07:30:47;101739.91;;;29.71;41.03
79589;BME280;69067;51.930;4.492;2023-07-09T07:33:23;101726.38;;;29.69;40.89
79589;BME280;69067;51.930;4.492;2023-07-09T07:35:49;101733.34;;;29.72;40.65
79589;BME280;69067;51.930;4.492;2023-07-09T07:38:14;101732.50;;;29.71;40.51
79589;BME280;69067;51.930;4.492;2023-07-09T07:40:44;101732.50;;;29.71;40.74
79589;BME280;69067;51.930;4.492;2023-07-09T07:43:10;101740.44;;;29.80;40.59
79589;BME280;69067;51.930;4.492;2023-07-09T07:45:40;101738.34;;;29.75;40.68
79589;BME280;69067;51.930;4.492;2023-07-09T07:48:06;101729.13;;;29.69;40.65
79589;BME280;69067;51.930;4.492;2023-07-09T07:50:32;101741.19;;;29.68;40.82
79589;BME280;69067;51.930;4.492;2023-07-09T07:52:58;101749.19;;;29.70;40.78
79589;BME280;69067;51.930;4.492;2023-07-09T07:55:24;101752.22;;;29.62;40.59
79589;BME280;69067;51.930;4.492;2023-07-09T07:57:50;101756.28;;;29.59;39.81
79589;BME280;69067;51.930;4.492;2023-07-09T08:00:16;101765.97;;;29.62;39.88
79589;BME280;69067;51.930;4.492;2023-07-09T08:02:42;101750.72;;;29.66;40.00
79589;BME280;69067;51.930;4.492;2023-07-09T08:05:08;101745.47;;;29.64;40.04
79589;BME280;69067;51.930;4.492;2023-07-09T08:07:34;101736.91;;;29.54;39.43
79589;BME280;69067;51.930;4.492;2023-07-09T08:09:59;101744.75;;;29.51;40.11
79589;BME280;69067;51.930;4.492;2023-07-09T08:12:25;101740.94;;;29.52;40.16
79589;BME280;69067;51.930;4.492;2023-07-09T08:14:51;101752.16;;;29.50;40.12
79589;BME280;69067;51.930;4.492;2023-07-09T08:17:16;101744.28;;;29.54;40.33
79589;BME280;69067;51.930;4.492;2023-07-09T08:19:51;101747.94;;;29.48;40.46
79589;BME280;69067;51.930;4.492;2023-07-09T08:22:19;101746.66;;;29.50;41.38
79589;BME280;69067;51.930;4.492;2023-07-09T08:24:47;101747.50;;;29.51;40.77
79589;BME280;69067;51.930;4.492;2023-07-09T08:27:14;101731.88;;;29.51;40.51
79589;BME280;69067;51.930;4.492;2023-07-09T08:29:40;101732.78;;;29.45;41.09
79589;BME280;69067;51.930;4.492;2023-07-09T08:32:09;101740.78;;;29.47;41.13
79589;BME280;69067;51.930;4.492;2023-07-09T08:34:39;101742.44;;;29.48;40.59
79589;BME280;69067;51.930;4.492;2023-07-09T08:37:07;101743.69;;;29.52;40.93
79589;BME280;69067;51.930;4.492;2023-07-09T08:39:34;101759.31;;;29.51;41.23
79589;BME280;69067;51.930;4.492;2023-07-09T08:42:11;101755.13;;;29.49;41.03
79589;BME280;69067;51.930;4.492;2023-07-09T08:47:52;101742.66;;;29.46;41.04
79589;BME280;69067;51.930;4.492;2023-07-09T08:50:47;101750.41;;;29.56;41.45
79589;BME280;69067;51.930;4.492;2023-07-09T08:53:42;101753.56;;;29.53;41.25
79589;BME280;69067;51.930;4.492;2023-07-09T08:56:14;101747.34;;;29.46;41.60
79589;BME280;69067;51.930;4.492;2023-07-09T08:58:43;101758.91;;;29.48;41.51
79589;BME280;69067;51.930;4.492;2023-07-09T09:01:23;101757.69;;;29.44;41.62
79589;BME280;69067;51.930;4.492;2023-07-09T09:03:56;101767.94;;;29.55;41.61
79589;BME280;69067;51.930;4.492;2023-07-09T09:06:29;101761.81;;;29.53;41.91
79589;BME280;69067;51.930;4.492;2023-07-09T09:09:25;101761.28;;;29.44;41.35
79589;BME280;69067;51.930;4.492;2023-07-09T09:14:36;101761.38;;;29.56;41.50
79589;BME280;69067;51.930;4.492;2023-07-09T09:17:15;101755.88;;;29.56;41.40
79589;BME280;69067;51.930;4.492;2023-07-09T09:20:01;101743.91;;;29.50;41.56
79589;BME280;69067;51.930;4.492;2023-07-09T09:22:54;101748.56;;;29.50;41.23
79589;BME280;69067;51.930;4.492;2023-07-09T09:25:31;101745.75;;;29.56;41.54
79589;BME280;69067;51.930;4.492;2023-07-09T09:28:00;101742.00;;;29.51;41.04
79589;BME280;69067;51.930;4.492;2023-07-09T09:30:27;101740.41;;;29.43;41.46
79589;BME280;69067;51.930;4.492;2023-07-09T09:35:27;101744.06;;;29.55;41.51
79589;BME280;69067;51.930;4.492;2023-07-09T09:38:00;101743.50;;;29.47;41.52
79589;BME280;69067;51.930;4.492;2023-07-09T09:40:29;101743.28;;;29.48;41.74
79589;BME280;69067;51.930;4.492;2023-07-09T09:42:59;101755.03;;;29.55;41.54
79589;BME280;69067;51.930;4.492;2023-07-09T09:45:32;101758.63;;;29.56;41.71
79589;BME280;69067;51.930;4.492;2023-07-09T09:48:03;101768.84;;;29.49;41.74
79589;BME280;69067;51.930;4.492;2023-07-09T09:50:40;101770.66;;;29.55;41.88
79589;BME280;69067;51.930;4.492;2023-07-09T09:53:08;101772.75;;;29.59;41.33
79589;BME280;69067;51.930;4.492;2023-07-09T09:55:38;101750.63;;;29.54;41.24
79589;BME280;69067;51.930;4.492;2023-07-09T09:58:13;101761.31;;;29.62;41.32
79589;BME280;69067;51.930;4.492;2023-07-09T10:00:49;101759.31;;;29.51;41.78
79589;BME280;69067;51.930;4.492;2023-07-09T10:03:18;101770.28;;;29.51;41.35
79589;BME280;69067;51.930;4.492;2023-07-09T10:05:52;101762.78;;;29.65;41.52
79589;BME280;69067;51.930;4.492;2023-07-09T10:11:19;101752.69;;;29.59;41.22
79589;BME280;69067;51.930;4.492;2023-07-09T10:13:57;101752.16;;;29.68;41.38
79589;BME280;69067;51.930;4.492;2023-07-09T10:16:37;101749.13;;;29.58;41.44
79589;BME280;69067;51.930;4.492;2023-07-09T10:19:14;101746.97;;;29.60;40.90
79589;BME280;69067;51.930;4.492;2023-07-09T10:22:07;101758.78;;;29.61;41.56
79589;BME280;69067;51.930;4.492;2023-07-09T10:28:01;101748.41;;;29.63;41.64
79589;BME280;69067;51.930;4.492;2023-07-09T10:31:44;101765.88;;;29.68;41.29
79589;BME280;69067;51.930;4.492;2023-07-09T10:34:21;101780.09;;;29.65;40.93
79589;BME280;69067;51.930;4.492;2023-07-09T10:37:15;101797.34;;;29.72;40.65
79589;BME280;69067;51.930;4.492;2023-07-09T10:40:10;101800.16;;;29.66;41.10
79589;BME280;69067;51.930;4.492;2023-07-09T10:42:45;101796.31;;;29.67;41.79
79589;BME280;69067;51.930;4.492;2023-07-09T10:45:30;101803.53;;;29.61;41.29
79589;BME280;69067;51.930;4.492;2023-07-09T10:48:13;101808.53;;;29.71;40.92
79589;BME280;69067;51.930;4.492;2023-07-09T10:50:52;101806.41;;;29.73;40.67
79589;BME280;69067;51.930;4.492;2023-07-09T10:56:22;101805.16;;;29.69;40.67
79589;BME280;69067;51.930;4.492;2023-07-09T10:59:25;101804.47;;;29.73;40.83
79589;BME280;69067;51.930;4.492;2023-07-09T11:02:00;101807.91;;;29.69;41.21
79589;BME280;69067;51.930;4.492;2023-07-09T11:05:00;101810.28;;;29.65;41.43
79589;BME280;69067;51.930;4.492;2023-07-09T11:07:33;101806.22;;;29.68;40.80
79589;BME280;69067;51.930;4.492;2023-07-09T11:10:19;101795.88;;;29.70;40.21
79589;BME280;69067;51.930;4.492;2023-07-09T11:13:01;101803.03;;;29.71;41.58
79589;BME280;69067;51.930;4.492;2023-07-09T11:15:36;101808.06;;;29.74;40.90
79589;BME280;69067;51.930;4.492;2023-07-09T11:18:18;101807.19;;;29.80;41.09
79589;BME280;69067;51.930;4.492;2023-07-09T11:21:04;101809.69;;;29.82;40.68
79589;BME280;69067;51.930;4.492;2023-07-09T11:23:46;101825.38;;;29.74;41.04
79589;BME280;69067;51.930;4.492;2023-07-09T11:26:26;101836.75;;;29.78;40.46
79589;BME280;69067;51.930;4.492;2023-07-09T11:31:36;101841.19;;;29.79;40.83
79589;BME280;69067;51.930;4.492;2023-07-09T11:36:34;101847.13;;;29.76;40.70
79589;BME280;69067;51.930;4.492;2023-07-09T11:42:01;101862.09;;;29.80;40.53
79589;BME280;69067;51.930;4.492;2023-07-09T11:44:31;101858.94;;;29.76;41.16
79589;BME280;69067;51.930;4.492;2023-07-09T11:47:21;101867.34;;;29.82;40.56
79589;BME280;69067;51.930;4.492;2023-07-09T11:50:01;101874.09;;;29.86;40.47
79589;BME280;69067;51.930;4.492;2023-07-09T11:55:44;101867.63;;;29.73;41.31
79589;BME280;69067;51.930;4.492;2023-07-09T11:58:14;101880.69;;;29.78;41.15
79589;BME280;69067;51.930;4.492;2023-07-09T12:00:54;101876.41;;;29.82;41.46
79589;BME280;69067;51.930;4.492;2023-07-09T12:03:32;101865.13;;;29.72;41.71
79589;BME280;69067;51.930;4.492;2023-07-09T12:06:03;101871.84;;;29.76;42.12
79589;BME280;69067;51.930;4.492;2023-07-09T12:08:51;101878.31;;;29.82;41.38
79589;BME280;69067;51.930;4.492;2023-07-09T12:11:44;101874.47;;;29.89;41.26
79589;BME280;69067;51.930;4.492;2023-07-09T12:14:18;101885.28;;;29.84;41.10
79589;BME280;69067;51.930;4.492;2023-07-09T12:16:52;101893.69;;;29.89;41.07
79589;BME280;69067;51.930;4.492;2023-07-09T12:19:23;101879.16;;;29.82;41.61
79589;BME280;69067;51.930;4.492;2023-07-09T12:21:53;101884.38;;;29.90;41.52
79589;BME280;69067;51.930;4.492;2023-07-09T12:24:31;101888.81;;;29.91;42.40
79589;BME280;69067;51.930;4.492;2023-07-09T12:27:17;101891.56;;;29.91;41.76
79589;BME280;69067;51.930;4.492;2023-07-09T12:29:45;101875.75;;;29.87;42.34
79589;BME280;69067;51.930;4.492;2023-07-09T12:32:16;101863.75;;;29.81;42.03
79589;BME280;69067;51.930;4.492;2023-07-09T12:34:48;101864.38;;;29.83;42.62
79589;BME280;69067;51.930;4.492;2023-07-09T12:37:16;101884.38;;;29.90;42.55
79589;BME280;69067;51.930;4.492;2023-07-09T12:39:43;101889.16;;;29.76;42.61
79589;BME280;69067;51.930;4.492;2023-07-09T12:42:16;101895.28;;;29.79;42.33
79589;BME280;69067;51.930;4.492;2023-07-09T12:44:45;101889.59;;;29.73;42.93
79589;BME280;69067;51.930;4.492;2023-07-09T12:47:15;101886.63;;;29.75;42.53
79589;BME280;69067;51.930;4.492;2023-07-09T12:49:44;101866.47;;;29.63;43.10
79589;BME280;69067;51.930;4.492;2023-07-09T12:52:18;101869.22;;;29.63;43.18
79589;BME280;69067;51.930;4.492;2023-07-09T12:55:00;101873.19;;;29.67;42.77
79589;BME280;69067;51.930;4.492;2023-07-09T12:57:28;101874.00;;;29.67;42.68
79589;BME280;69067;51.930;4.492;2023-07-09T12:59:56;101870.00;;;29.70;42.61
79589;BME280;69067;51.930;4.492;2023-07-09T13:02:27;101866.34;;;29.76;42.85
79589;BME280;69067;51.930;4.492;2023-07-09T13:05:13;101857.78;;;29.66;42.98
79589;BME280;69067;51.930;4.492;2023-07-09T13:07:49;101854.59;;;29.69;42.45
79589;BME280;69067;51.930;4.492;2023-07-09T13:10:26;101856.09;;;29.65;43.06
79589;BME280;69067;51.930;4.492;2023-07-09T13:12:56;101847.66;;;29.66;43.07
79589;BME280;69067;51.930;4.492;2023-07-09T13:18:05;101851.69;;;29.64;42.47
79589;BME280;69067;51.930;4.492;2023-07-09T13:20:39;101862.59;;;29.70;42.92
79589;BME280;69067;51.930;4.492;2023-07-09T13:23:19;101868.66;;;29.54;42.82
79589;BME280;69067;51.930;4.492;2023-07-09T13:25:47;101875.44;;;29.52;42.51
79589;BME280;69067;51.930;4.492;2023-07-09T13:28:22;101889.75;;;29.54;42.95
79589;BME280;69067;51.930;4.492;2023-07-09T13:31:14;101886.78;;;29.55;42.29
79589;BME280;69067;51.930;4.492;2023-07-09T13:33:41;101890.66;;;29.48;42.16
79589;BME280;69067;51.930;4.492;2023-07-09T13:36:08;101883.94;;;29.44;42.42
79589;BME280;69067;51.930;4.492;2023-07-09T13:38:34;101880.56;;;29.42;42.38
79589;BME280;69067;51.930;4.492;2023-07-09T13:41:12;101877.66;;;29.36;42.71